<?xml version="1.0" encoding="UTF-8" standalone="no" ?><gpx xmlns="http://www.topografix.com/GPX/1/1" xmlns:gpxx="http://www.garmin.com/xmlschemas/GpxExtensions/v3" xmlns:gpxtrkx="http://www.garmin.com/xmlschemas/TrackStatsExtension/v1" xmlns:wptx1="http://www.garmin.com/xmlschemas/WaypointExtension/v1" xmlns:gpxtpx="http://www.garmin.com/xmlschemas/TrackPointExtension/v1" creator="Oregon 700" version="1.1" xmlns:xsi="http://www.w3.org/2001/XMLSchema-instance" xsi:schemaLocation="http://www.topografix.com/GPX/1/1 http://www.topografix.com/GPX/1/1/gpx.xsd http://www.garmin.com/xmlschemas/GpxExtensions/v3 http://www8.garmin.com/xmlschemas/GpxExtensionsv3.xsd http://www.garmin.com/xmlschemas/TrackStatsExtension/v1 http://www8.garmin.com/xmlschemas/TrackStatsExtension.xsd http://www.garmin.com/xmlschemas/WaypointExtension/v1 http://www8.garmin.com/xmlschemas/WaypointExtensionv1.xsd http://www.garmin.com/xmlschemas/TrackPointExtension/v1 http://www.garmin.com/xmlschemas/TrackPointExtensionv1.xsd"><metadata><link href="http://www.garmin.com"><text>Garmin International</text></link><time>2023-11-22T16:48:19Z</time></metadata><trk><name>Current Track: 22 NOV 2023 10:15</name><extensions><gpxx:TrackExtension><gpxx:DisplayColor>Cyan</gpxx:DisplayColor></gpxx:TrackExtension><gpxtrkx:TrackStatsExtension><gpxtrkx:Distance>3609.000</gpxtrkx:Distance><gpxtrkx:TimerTime>6479</gpxtrkx:TimerTime><gpxtrkx:TotalElapsedTime>23592</gpxtrkx:TotalElapsedTime><gpxtrkx:MovingTime>5577</gpxtrkx:MovingTime><gpxtrkx:StoppedTime>903</gpxtrkx:StoppedTime><gpxtrkx:MovingSpeed>0.647</gpxtrkx:MovingSpeed><gpxtrkx:MaxSpeed>1.246</gpxtrkx:MaxSpeed><gpxtrkx:MaxElevation>0.000</gpxtrkx:MaxElevation><gpxtrkx:MinElevation>-121.119</gpxtrkx:MinElevation><gpxtrkx:Ascent>117.000</gpxtrkx:Ascent><gpxtrkx:Descent>106.171</gpxtrkx:Descent><gpxtrkx:AvgAscentRate>0.076</gpxtrkx:AvgAscentRate><gpxtrkx:MaxAscentRate>0.121</gpxtrkx:MaxAscentRate><gpxtrkx:AvgDescentRate>0.059</gpxtrkx:AvgDescentRate><gpxtrkx:MaxDescentRate>-0.252</gpxtrkx:MaxDescentRate><gpxtrkx:Calories>158</gpxtrkx:Calories></gpxtrkx:TrackStatsExtension></extensions><trkseg><trkpt lat="51.7232912499" lon="-2.1129394881"><ele>-69.70</ele><time>2023-11-22T10:15:07Z</time></trkpt><trkpt lat="51.7232754920" lon="-2.1129415836"><ele>-67.79</ele><time>2023-11-22T10:15:36Z</time></trkpt><trkpt lat="51.7232813593" lon="-2.1129650529"><ele>-68.17</ele><time>2023-11-22T10:15:59Z</time></trkpt><trkpt lat="51.7232704628" lon="-2.1129684895"><ele>-68.18</ele><time>2023-11-22T10:16:18Z</time></trkpt><trkpt lat="51.7231911700" lon="-2.1130500454"><ele>-68.18</ele><time>2023-11-22T10:16:36Z</time></trkpt><trkpt lat="51.7231153976" lon="-2.1132486966"><ele>-68.18</ele><time>2023-11-22T10:17:00Z</time></trkpt><trkpt lat="51.7231412977" lon="-2.1132943779"><ele>-70.86</ele><time>2023-11-22T10:17:13Z</time></trkpt><trkpt lat="51.7231590673" lon="-2.1133206971"><ele>-70.96</ele><time>2023-11-22T10:17:33Z</time></trkpt><trkpt lat="51.7231727298" lon="-2.1132265683"><ele>-71.17</ele><time>2023-11-22T10:17:54Z</time></trkpt><trkpt lat="51.7232638411" lon="-2.1132384706"><ele>-71.76</ele><time>2023-11-22T10:18:16Z</time></trkpt><trkpt lat="51.7233830318" lon="-2.1133004967"><ele>-73.20</ele><time>2023-11-22T10:18:36Z</time></trkpt><trkpt lat="51.7234695330" lon="-2.1133467648"><ele>-74.38</ele><time>2023-11-22T10:18:53Z</time></trkpt><trkpt lat="51.7235515919" lon="-2.1132700704"><ele>-75.55</ele><time>2023-11-22T10:19:14Z</time></trkpt><trkpt lat="51.7236167192" lon="-2.1132642031"><ele>-77.09</ele><time>2023-11-22T10:19:33Z</time></trkpt><trkpt lat="51.7237143684" lon="-2.1131956391"><ele>-78.94</ele><time>2023-11-22T10:19:52Z</time></trkpt><trkpt lat="51.7239211500" lon="-2.1131098922"><ele>-81.17</ele><time>2023-11-22T10:20:13Z</time></trkpt><trkpt lat="51.7240810767" lon="-2.1131210402"><ele>-83.20</ele><time>2023-11-22T10:20:36Z</time></trkpt><trkpt lat="51.7242134269" lon="-2.1131344512"><ele>-85.05</ele><time>2023-11-22T10:20:55Z</time></trkpt><trkpt lat="51.7243197933" lon="-2.1130814776"><ele>-86.86</ele><time>2023-11-22T10:21:12Z</time></trkpt><trkpt lat="51.7244369723" lon="-2.1129063796"><ele>-88.98</ele><time>2023-11-22T10:21:33Z</time></trkpt><trkpt lat="51.7245419137" lon="-2.1127798967"><ele>-91.22</ele><time>2023-11-22T10:21:55Z</time></trkpt><trkpt lat="51.7245737650" lon="-2.1127224807"><ele>-91.58</ele><time>2023-11-22T10:22:12Z</time></trkpt><trkpt lat="51.7245821469" lon="-2.1126850974"><ele>-91.99</ele><time>2023-11-22T10:22:34Z</time></trkpt><trkpt lat="51.7246007547" lon="-2.1126702614"><ele>-91.82</ele><time>2023-11-22T10:22:44Z</time></trkpt><trkpt lat="51.7246844899" lon="-2.1126814932"><ele>-91.65</ele><time>2023-11-22T10:23:06Z</time></trkpt><trkpt lat="51.7247331049" lon="-2.1126871090"><ele>-91.64</ele><time>2023-11-22T10:23:27Z</time></trkpt><trkpt lat="51.7247751821" lon="-2.1126767155"><ele>-91.90</ele><time>2023-11-22T10:23:49Z</time></trkpt><trkpt lat="51.7248144094" lon="-2.1125760488"><ele>-92.56</ele><time>2023-11-22T10:24:10Z</time></trkpt><trkpt lat="51.7248893436" lon="-2.1124882903"><ele>-93.70</ele><time>2023-11-22T10:24:29Z</time></trkpt><trkpt lat="51.7250061035" lon="-2.1123690996"><ele>-94.49</ele><time>2023-11-22T10:24:51Z</time></trkpt><trkpt lat="51.7251123860" lon="-2.1121378429"><ele>-95.36</ele><time>2023-11-22T10:25:16Z</time></trkpt><trkpt lat="51.7251342628" lon="-2.1118645091"><ele>-96.40</ele><time>2023-11-22T10:25:40Z</time></trkpt><trkpt lat="51.7251190916" lon="-2.1117767505"><ele>-96.83</ele><time>2023-11-22T10:25:58Z</time></trkpt><trkpt lat="51.7251070216" lon="-2.1116719767"><ele>-97.00</ele><time>2023-11-22T10:26:17Z</time></trkpt><trkpt lat="51.7250795290" lon="-2.1115475055"><ele>-97.32</ele><time>2023-11-22T10:26:38Z</time></trkpt><trkpt lat="51.7251107935" lon="-2.1114439890"><ele>-97.49</ele><time>2023-11-22T10:26:58Z</time></trkpt><trkpt lat="51.7251501884" lon="-2.1112857386"><ele>-97.51</ele><time>2023-11-22T10:27:21Z</time></trkpt><trkpt lat="51.7251649406" lon="-2.1110290010"><ele>-97.53</ele><time>2023-11-22T10:27:42Z</time></trkpt><trkpt lat="51.7251842190" lon="-2.1108433418"><ele>-97.53</ele><time>2023-11-22T10:28:04Z</time></trkpt><trkpt lat="51.7251737416" lon="-2.1108166035"><ele>-97.53</ele><time>2023-11-22T10:28:10Z</time></trkpt><trkpt lat="51.7252019886" lon="-2.1105643082"><ele>-97.03</ele><time>2023-11-22T10:28:32Z</time></trkpt><trkpt lat="51.7251569778" lon="-2.1103110909"><ele>-96.90</ele><time>2023-11-22T10:28:54Z</time></trkpt><trkpt lat="51.7251541279" lon="-2.1101152059"><ele>-96.56</ele><time>2023-11-22T10:29:18Z</time></trkpt><trkpt lat="51.7251491826" lon="-2.1100922395"><ele>-96.41</ele><time>2023-11-22T10:29:44Z</time></trkpt><trkpt lat="51.7251450755" lon="-2.1099865437"><ele>-96.36</ele><time>2023-11-22T10:30:08Z</time></trkpt><trkpt lat="51.7251650244" lon="-2.1098382678"><ele>-96.71</ele><time>2023-11-22T10:30:27Z</time></trkpt><trkpt lat="51.7251264676" lon="-2.1097730566"><ele>-96.71</ele><time>2023-11-22T10:30:49Z</time></trkpt><trkpt lat="51.7251669522" lon="-2.1096993797"><ele>-96.71</ele><time>2023-11-22T10:31:15Z</time></trkpt><trkpt lat="51.7251625098" lon="-2.1096695401"><ele>-100.95</ele><time>2023-11-22T10:31:24Z</time></trkpt><trkpt lat="51.7251629289" lon="-2.1096674446"><ele>-101.04</ele><time>2023-11-22T10:31:25Z</time></trkpt><trkpt lat="51.7251759209" lon="-2.1095508523"><ele>-102.92</ele><time>2023-11-22T10:31:50Z</time></trkpt><trkpt lat="51.7251535412" lon="-2.1094031632"><ele>-104.57</ele><time>2023-11-22T10:32:17Z</time></trkpt><trkpt lat="51.7251521163" lon="-2.1091948729"><ele>-107.51</ele><time>2023-11-22T10:32:41Z</time></trkpt><trkpt lat="51.7251226120" lon="-2.1090433281"><ele>-109.48</ele><time>2023-11-22T10:33:02Z</time></trkpt><trkpt lat="51.7251240369" lon="-2.1088721696"><ele>-111.23</ele><time>2023-11-22T10:33:26Z</time></trkpt><trkpt lat="51.7251345143" lon="-2.1086555813"><ele>-112.64</ele><time>2023-11-22T10:33:51Z</time></trkpt><trkpt lat="51.7250792775" lon="-2.1084829979"><ele>-113.68</ele><time>2023-11-22T10:34:14Z</time></trkpt><trkpt lat="51.7250629328" lon="-2.1083439421"><ele>-114.35</ele><time>2023-11-22T10:34:35Z</time></trkpt><trkpt lat="51.7250420619" lon="-2.1080713626"><ele>-114.83</ele><time>2023-11-22T10:34:53Z</time></trkpt><trkpt lat="51.7250369489" lon="-2.1079528425"><ele>-115.09</ele><time>2023-11-22T10:35:12Z</time></trkpt><trkpt lat="51.7250217777" lon="-2.1077697817"><ele>-115.19</ele><time>2023-11-22T10:35:38Z</time></trkpt><trkpt lat="51.7249378748" lon="-2.1075956896"><ele>-115.13</ele><time>2023-11-22T10:36:00Z</time></trkpt><trkpt lat="51.7249731626" lon="-2.1073201764"><ele>-114.75</ele><time>2023-11-22T10:36:15Z</time></trkpt><trkpt lat="51.7249797843" lon="-2.1071843058"><ele>-114.99</ele><time>2023-11-22T10:36:37Z</time></trkpt><trkpt lat="51.7250242922" lon="-2.1069789492"><ele>-114.95</ele><time>2023-11-22T10:36:58Z</time></trkpt><trkpt lat="51.7250565626" lon="-2.1068050247"><ele>-114.71</ele><time>2023-11-22T10:37:24Z</time></trkpt><trkpt lat="51.7250422295" lon="-2.1067812201"><ele>-114.71</ele><time>2023-11-22T10:37:28Z</time></trkpt><trkpt lat="51.7250016611" lon="-2.1066641249"><ele>-113.50</ele><time>2023-11-22T10:37:53Z</time></trkpt><trkpt lat="51.7249983083" lon="-2.1064865962"><ele>-114.33</ele><time>2023-11-22T10:38:40Z</time></trkpt><trkpt lat="51.7249994818" lon="-2.1064057946"><ele>-116.24</ele><time>2023-11-22T10:38:59Z</time></trkpt><trkpt lat="51.7250356078" lon="-2.1061964147"><ele>-118.10</ele><time>2023-11-22T10:39:19Z</time></trkpt><trkpt lat="51.7250837199" lon="-2.1059881244"><ele>-118.19</ele><time>2023-11-22T10:39:48Z</time></trkpt><trkpt lat="51.7251201812" lon="-2.1056797542"><ele>-117.68</ele><time>2023-11-22T10:40:13Z</time></trkpt><trkpt lat="51.7251366936" lon="-2.1056590509"><ele>-117.67</ele><time>2023-11-22T10:40:15Z</time></trkpt><trkpt lat="51.7252519447" lon="-2.1055433806"><ele>-117.65</ele><time>2023-11-22T10:40:35Z</time></trkpt><trkpt lat="51.7252506036" lon="-2.1055328194"><ele>-117.64</ele><time>2023-11-22T10:40:37Z</time></trkpt><trkpt lat="51.7252353486" lon="-2.1054219268"><ele>-117.52</ele><time>2023-11-22T10:41:06Z</time></trkpt><trkpt lat="51.7252889927" lon="-2.1052360162"><ele>-117.62</ele><time>2023-11-22T10:41:46Z</time></trkpt><trkpt lat="51.7253013141" lon="-2.1050448250"><ele>-117.91</ele><time>2023-11-22T10:42:04Z</time></trkpt><trkpt lat="51.7252694629" lon="-2.1048669610"><ele>-119.29</ele><time>2023-11-22T10:42:34Z</time></trkpt><trkpt lat="51.7253175750" lon="-2.1046197787"><ele>-120.30</ele><time>2023-11-22T10:43:02Z</time></trkpt><trkpt lat="51.7253580596" lon="-2.1043352969"><ele>-120.92</ele><time>2023-11-22T10:43:40Z</time></trkpt><trkpt lat="51.7253675312" lon="-2.1041394118"><ele>-121.16</ele><time>2023-11-22T10:44:03Z</time></trkpt><trkpt lat="51.7253681179" lon="-2.1041104943"><ele>-121.43</ele><time>2023-11-22T10:44:05Z</time></trkpt><trkpt lat="51.7253327463" lon="-2.1038867813"><ele>-120.68</ele><time>2023-11-22T10:44:28Z</time></trkpt><trkpt lat="51.7253504321" lon="-2.1038405132"><ele>-120.47</ele><time>2023-11-22T10:44:50Z</time></trkpt><trkpt lat="51.7253035773" lon="-2.1037888806"><ele>-120.01</ele><time>2023-11-22T10:45:15Z</time></trkpt><trkpt lat="51.7253054213" lon="-2.1038152836"><ele>-119.42</ele><time>2023-11-22T10:45:38Z</time></trkpt><trkpt lat="51.7252522800" lon="-2.1036641579"><ele>-119.55</ele><time>2023-11-22T10:46:17Z</time></trkpt><trkpt lat="51.7251977976" lon="-2.1034489945"><ele>-119.85</ele><time>2023-11-22T10:46:59Z</time></trkpt><trkpt lat="51.7251597438" lon="-2.1033159737"><ele>-119.85</ele><time>2023-11-22T10:47:28Z</time></trkpt><trkpt lat="51.7251651082" lon="-2.1032984555"><ele>-119.85</ele><time>2023-11-22T10:47:46Z</time></trkpt><trkpt lat="51.7251166608" lon="-2.1032590605"><ele>-119.85</ele><time>2023-11-22T10:48:06Z</time></trkpt><trkpt lat="51.7250589933" lon="-2.1031505149"><ele>-119.85</ele><time>2023-11-22T10:48:31Z</time></trkpt><trkpt lat="51.7250312492" lon="-2.1031109523"><ele>-119.85</ele><time>2023-11-22T10:48:55Z</time></trkpt><trkpt lat="51.7250423133" lon="-2.1030934341"><ele>-119.85</ele><time>2023-11-22T10:49:19Z</time></trkpt><trkpt lat="51.7249974702" lon="-2.1029805299"><ele>-119.85</ele><time>2023-11-22T10:49:40Z</time></trkpt><trkpt lat="51.7249936145" lon="-2.1028744988"><ele>-112.19</ele><time>2023-11-22T10:50:01Z</time></trkpt><trkpt lat="51.7249912675" lon="-2.1028596628"><ele>-112.13</ele><time>2023-11-22T10:50:02Z</time></trkpt><trkpt lat="51.7249605060" lon="-2.1027523745"><ele>-111.72</ele><time>2023-11-22T10:50:25Z</time></trkpt><trkpt lat="51.7249414790" lon="-2.1025984827"><ele>-110.54</ele><time>2023-11-22T10:50:48Z</time></trkpt><trkpt lat="51.7249002401" lon="-2.1024090517"><ele>-108.82</ele><time>2023-11-22T10:51:13Z</time></trkpt><trkpt lat="51.7248919420" lon="-2.1022808924"><ele>-107.39</ele><time>2023-11-22T10:51:28Z</time></trkpt><trkpt lat="51.7248806264" lon="-2.1021422558"><ele>-106.06</ele><time>2023-11-22T10:51:49Z</time></trkpt><trkpt lat="51.7248675507" lon="-2.1021168586"><ele>-105.73</ele><time>2023-11-22T10:51:54Z</time></trkpt><trkpt lat="51.7248633597" lon="-2.1019684989"><ele>-104.66</ele><time>2023-11-22T10:52:19Z</time></trkpt><trkpt lat="51.7248733342" lon="-2.1018433571"><ele>-102.94</ele><time>2023-11-22T10:52:40Z</time></trkpt><trkpt lat="51.7248673830" lon="-2.1016810834"><ele>-101.35</ele><time>2023-11-22T10:53:06Z</time></trkpt><trkpt lat="51.7248413991" lon="-2.1015648264"><ele>-100.00</ele><time>2023-11-22T10:53:27Z</time></trkpt><trkpt lat="51.7247922812" lon="-2.1014601365"><ele>-98.43</ele><time>2023-11-22T10:53:52Z</time></trkpt><trkpt lat="51.7247559037" lon="-2.1013361681"><ele>-98.28</ele><time>2023-11-22T10:54:15Z</time></trkpt><trkpt lat="51.7247360386" lon="-2.1012634970"><ele>-98.05</ele><time>2023-11-22T10:54:36Z</time></trkpt><trkpt lat="51.7247282434" lon="-2.1011837013"><ele>-97.30</ele><time>2023-11-22T10:55:02Z</time></trkpt><trkpt lat="51.7247020081" lon="-2.1010504290"><ele>-95.97</ele><time>2023-11-22T10:55:27Z</time></trkpt><trkpt lat="51.7246476933" lon="-2.1009682864"><ele>-95.47</ele><time>2023-11-22T10:55:45Z</time></trkpt><trkpt lat="51.7245845776" lon="-2.1008927654"><ele>-94.00</ele><time>2023-11-22T10:56:13Z</time></trkpt><trkpt lat="51.7245426681" lon="-2.1008100361"><ele>-91.86</ele><time>2023-11-22T10:56:34Z</time></trkpt><trkpt lat="51.7245513014" lon="-2.1007079445"><ele>-90.39</ele><time>2023-11-22T10:56:59Z</time></trkpt><trkpt lat="51.7245373875" lon="-2.1005833056"><ele>-88.80</ele><time>2023-11-22T10:57:22Z</time></trkpt><trkpt lat="51.7245440092" lon="-2.1005041804"><ele>-88.10</ele><time>2023-11-22T10:58:01Z</time></trkpt><trkpt lat="51.7245015968" lon="-2.1003379673"><ele>-86.20</ele><time>2023-11-22T10:58:18Z</time></trkpt><trkpt lat="51.7245239764" lon="-2.1002417430"><ele>-85.00</ele><time>2023-11-22T10:58:26Z</time></trkpt><trkpt lat="51.7245328613" lon="-2.1001872607"><ele>-84.05</ele><time>2023-11-22T10:58:35Z</time></trkpt><trkpt lat="51.7245212942" lon="-2.1001223009"><ele>-83.06</ele><time>2023-11-22T10:59:01Z</time></trkpt><trkpt lat="51.7245141696" lon="-2.1000622865"><ele>-82.15</ele><time>2023-11-22T10:59:25Z</time></trkpt><trkpt lat="51.7244917899" lon="-2.0999261644"><ele>-80.52</ele><time>2023-11-22T10:59:51Z</time></trkpt><trkpt lat="51.7244847491" lon="-2.0999060478"><ele>-79.89</ele><time>2023-11-22T11:00:16Z</time></trkpt><trkpt lat="51.7244378105" lon="-2.0998101588"><ele>-79.46</ele><time>2023-11-22T11:00:42Z</time></trkpt><trkpt lat="51.7244213820" lon="-2.0997403376"><ele>-79.18</ele><time>2023-11-22T11:01:09Z</time></trkpt><trkpt lat="51.7244235612" lon="-2.0997198019"><ele>-79.16</ele><time>2023-11-22T11:01:13Z</time></trkpt><trkpt lat="51.7244332843" lon="-2.0996395033"><ele>-78.40</ele><time>2023-11-22T11:01:36Z</time></trkpt><trkpt lat="51.7244269140" lon="-2.0994872041"><ele>-76.18</ele><time>2023-11-22T11:01:57Z</time></trkpt><trkpt lat="51.7244126648" lon="-2.0994168799"><ele>-75.14</ele><time>2023-11-22T11:02:22Z</time></trkpt><trkpt lat="51.7244396545" lon="-2.0993312169"><ele>-74.58</ele><time>2023-11-22T11:02:44Z</time></trkpt><trkpt lat="51.7244227231" lon="-2.0992001239"><ele>-75.42</ele><time>2023-11-22T11:03:09Z</time></trkpt><trkpt lat="51.7244078871" lon="-2.0990381017"><ele>-75.10</ele><time>2023-11-22T11:03:32Z</time></trkpt><trkpt lat="51.7244190350" lon="-2.0988788456"><ele>-75.10</ele><time>2023-11-22T11:03:55Z</time></trkpt><trkpt lat="51.7244059592" lon="-2.0987790171"><ele>-71.91</ele><time>2023-11-22T11:04:16Z</time></trkpt><trkpt lat="51.7244016845" lon="-2.0987712219"><ele>-71.91</ele><time>2023-11-22T11:04:17Z</time></trkpt><trkpt lat="51.7243842501" lon="-2.0986861456"><ele>-72.82</ele><time>2023-11-22T11:04:42Z</time></trkpt><trkpt lat="51.7243768740" lon="-2.0986696333"><ele>-69.47</ele><time>2023-11-22T11:04:45Z</time></trkpt><trkpt lat="51.7243704200" lon="-2.0986512769"><ele>-67.90</ele><time>2023-11-22T11:04:48Z</time></trkpt><trkpt lat="51.7243723478" lon="-2.0985449944"><ele>-66.97</ele><time>2023-11-22T11:05:14Z</time></trkpt><trkpt lat="51.7243449390" lon="-2.0984372031"><ele>-65.75</ele><time>2023-11-22T11:05:35Z</time></trkpt><trkpt lat="51.7242876068" lon="-2.0983398054"><ele>-64.90</ele><time>2023-11-22T11:05:51Z</time></trkpt><trkpt lat="51.7241962440" lon="-2.0983151626"><ele>-62.65</ele><time>2023-11-22T11:06:12Z</time></trkpt><trkpt lat="51.7241267581" lon="-2.0982353669"><ele>-61.43</ele><time>2023-11-22T11:06:34Z</time></trkpt><trkpt lat="51.7240250856" lon="-2.0982008334"><ele>-61.42</ele><time>2023-11-22T11:06:51Z</time></trkpt><trkpt lat="51.7240137700" lon="-2.0981788728"><ele>-61.44</ele><time>2023-11-22T11:07:12Z</time></trkpt><trkpt lat="51.7239805777" lon="-2.0982169267"><ele>-61.70</ele><time>2023-11-22T11:07:36Z</time></trkpt><trkpt lat="51.7239628080" lon="-2.0981911104"><ele>-61.70</ele><time>2023-11-22T11:08:00Z</time></trkpt><trkpt lat="51.7239445355" lon="-2.0982206147"><ele>-61.70</ele><time>2023-11-22T11:08:29Z</time></trkpt><trkpt lat="51.7239456251" lon="-2.0981672220"><ele>-61.70</ele><time>2023-11-22T11:08:58Z</time></trkpt><trkpt lat="51.7239829246" lon="-2.0982017554"><ele>-61.70</ele><time>2023-11-22T11:09:28Z</time></trkpt><trkpt lat="51.7239431944" lon="-2.0982046891"><ele>-61.30</ele><time>2023-11-22T11:09:59Z</time></trkpt><trkpt lat="51.7239074036" lon="-2.0981998276"><ele>-61.20</ele><time>2023-11-22T11:10:26Z</time></trkpt><trkpt lat="51.7239183001" lon="-2.0983181801"><ele>-59.36</ele><time>2023-11-22T11:10:54Z</time></trkpt><trkpt lat="51.7239649873" lon="-2.0983641967"><ele>-61.58</ele><time>2023-11-22T11:11:01Z</time></trkpt><trkpt lat="51.7239976767" lon="-2.0983502828"><ele>-59.70</ele><time>2023-11-22T11:11:26Z</time></trkpt><trkpt lat="51.7239699326" lon="-2.0983216166"><ele>-59.20</ele><time>2023-11-22T11:11:35Z</time></trkpt></trkseg><trkseg><trkpt lat="51.7239923961" lon="-2.0985430665"><ele>-61.45</ele><time>2023-11-22T11:29:14Z</time></trkpt><trkpt lat="51.7237891350" lon="-2.0984555595"><ele>-61.45</ele><time>2023-11-22T11:29:15Z</time></trkpt><trkpt lat="51.7238214053" lon="-2.0984808728"><ele>-61.45</ele><time>2023-11-22T11:29:28Z</time></trkpt><trkpt lat="51.7238545138" lon="-2.0984782744"><ele>-61.45</ele><time>2023-11-22T11:29:49Z</time></trkpt><trkpt lat="51.7238525860" lon="-2.0985249616"><ele>-61.45</ele><time>2023-11-22T11:30:10Z</time></trkpt><trkpt lat="51.7238198966" lon="-2.0986664481"><ele>-61.45</ele><time>2023-11-22T11:30:30Z</time></trkpt><trkpt lat="51.7238254286" lon="-2.0987216849"><ele>-57.09</ele><time>2023-11-22T11:30:44Z</time></trkpt><trkpt lat="51.7238293681" lon="-2.0987264626"><ele>-57.19</ele><time>2023-11-22T11:30:45Z</time></trkpt><trkpt lat="51.7238049768" lon="-2.0988394506"><ele>-56.83</ele><time>2023-11-22T11:31:06Z</time></trkpt><trkpt lat="51.7237388436" lon="-2.0990056638"><ele>-56.07</ele><time>2023-11-22T11:31:31Z</time></trkpt><trkpt lat="51.7237100936" lon="-2.0991639141"><ele>-53.92</ele><time>2023-11-22T11:31:54Z</time></trkpt><trkpt lat="51.7236672621" lon="-2.0992253534"><ele>-53.20</ele><time>2023-11-22T11:32:18Z</time></trkpt><trkpt lat="51.7236452177" lon="-2.0992758125"><ele>-51.69</ele><time>2023-11-22T11:32:41Z</time></trkpt><trkpt lat="51.7235752288" lon="-2.0993567817"><ele>-49.62</ele><time>2023-11-22T11:33:02Z</time></trkpt><trkpt lat="51.7234867159" lon="-2.0994515810"><ele>-47.83</ele><time>2023-11-22T11:33:21Z</time></trkpt><trkpt lat="51.7234250251" lon="-2.0995370764"><ele>-46.34</ele><time>2023-11-22T11:33:43Z</time></trkpt><trkpt lat="51.7233276274" lon="-2.0996568538"><ele>-45.66</ele><time>2023-11-22T11:34:03Z</time></trkpt><trkpt lat="51.7233023141" lon="-2.0997412596"><ele>-45.25</ele><time>2023-11-22T11:34:15Z</time></trkpt><trkpt lat="51.7232902441" lon="-2.0997813251"><ele>-45.08</ele><time>2023-11-22T11:34:17Z</time></trkpt><trkpt lat="51.7232780065" lon="-2.0998780522"><ele>-44.67</ele><time>2023-11-22T11:34:21Z</time></trkpt><trkpt lat="51.7232706305" lon="-2.0999436826"><ele>-44.62</ele><time>2023-11-22T11:34:24Z</time></trkpt><trkpt lat="51.7232234403" lon="-2.1001898590"><ele>-44.62</ele><time>2023-11-22T11:34:43Z</time></trkpt><trkpt lat="51.7231988814" lon="-2.1002896875"><ele>-44.72</ele><time>2023-11-22T11:34:52Z</time></trkpt><trkpt lat="51.7231799383" lon="-2.1003750991"><ele>-44.55</ele><time>2023-11-22T11:35:18Z</time></trkpt><trkpt lat="51.7230910063" lon="-2.1004662942"><ele>-44.96</ele><time>2023-11-22T11:35:36Z</time></trkpt><trkpt lat="51.7231453210" lon="-2.1006048471"><ele>-44.28</ele><time>2023-11-22T11:35:55Z</time></trkpt><trkpt lat="51.7231518589" lon="-2.1006040089"><ele>-44.16</ele><time>2023-11-22T11:35:59Z</time></trkpt><trkpt lat="51.7230729852" lon="-2.1005698945"><ele>-44.08</ele><time>2023-11-22T11:36:21Z</time></trkpt><trkpt lat="51.7229431495" lon="-2.1008262131"><ele>-44.08</ele><time>2023-11-22T11:36:43Z</time></trkpt><trkpt lat="51.7229048442" lon="-2.1010663547"><ele>-44.08</ele><time>2023-11-22T11:37:02Z</time></trkpt><trkpt lat="51.7228185106" lon="-2.1011322364"><ele>-44.08</ele><time>2023-11-22T11:37:23Z</time></trkpt><trkpt lat="51.7227153294" lon="-2.1013209131"><ele>-44.08</ele><time>2023-11-22T11:37:46Z</time></trkpt><trkpt lat="51.7226871662" lon="-2.1013753954"><ele>-38.95</ele><time>2023-11-22T11:38:02Z</time></trkpt><trkpt lat="51.7226853222" lon="-2.1013786644"><ele>-39.56</ele><time>2023-11-22T11:38:03Z</time></trkpt><trkpt lat="51.7226662114" lon="-2.1014584601"><ele>-40.12</ele><time>2023-11-22T11:38:22Z</time></trkpt><trkpt lat="51.7225829791" lon="-2.1016022097"><ele>-40.32</ele><time>2023-11-22T11:38:46Z</time></trkpt><trkpt lat="51.7225372139" lon="-2.1018319577"><ele>-41.19</ele><time>2023-11-22T11:39:09Z</time></trkpt><trkpt lat="51.7225249764" lon="-2.1020539943"><ele>-42.28</ele><time>2023-11-22T11:39:34Z</time></trkpt><trkpt lat="51.7225283291" lon="-2.1022630390"><ele>-42.75</ele><time>2023-11-22T11:39:59Z</time></trkpt><trkpt lat="51.7225169297" lon="-2.1023699082"><ele>-42.93</ele><time>2023-11-22T11:40:18Z</time></trkpt><trkpt lat="51.7225236353" lon="-2.1025066171"><ele>-43.90</ele><time>2023-11-22T11:40:42Z</time></trkpt><trkpt lat="51.7225121520" lon="-2.1027600020"><ele>-45.34</ele><time>2023-11-22T11:41:10Z</time></trkpt><trkpt lat="51.7224874254" lon="-2.1030430589"><ele>-46.02</ele><time>2023-11-22T11:41:31Z</time></trkpt><trkpt lat="51.7224683147" lon="-2.1032699570"><ele>-46.33</ele><time>2023-11-22T11:41:56Z</time></trkpt><trkpt lat="51.7224249803" lon="-2.1034346614"><ele>-46.16</ele><time>2023-11-22T11:42:20Z</time></trkpt><trkpt lat="51.7223907821" lon="-2.1036284510"><ele>-46.28</ele><time>2023-11-22T11:42:42Z</time></trkpt><trkpt lat="51.7224017624" lon="-2.1038036328"><ele>-46.32</ele><time>2023-11-22T11:42:59Z</time></trkpt><trkpt lat="51.7224345356" lon="-2.1039967518"><ele>-46.11</ele><time>2023-11-22T11:43:22Z</time></trkpt><trkpt lat="51.7224626150" lon="-2.1042494662"><ele>-45.97</ele><time>2023-11-22T11:43:48Z</time></trkpt><trkpt lat="51.7224560771" lon="-2.1044058725"><ele>-46.52</ele><time>2023-11-22T11:44:05Z</time></trkpt><trkpt lat="51.7224237230" lon="-2.1048725769"><ele>-48.02</ele><time>2023-11-22T11:44:33Z</time></trkpt><trkpt lat="51.7224847432" lon="-2.1052208450"><ele>-48.51</ele><time>2023-11-22T11:44:59Z</time></trkpt><trkpt lat="51.7225100566" lon="-2.1052832901"><ele>-47.93</ele><time>2023-11-22T11:45:23Z</time></trkpt><trkpt lat="51.7225831468" lon="-2.1054324042"><ele>-47.51</ele><time>2023-11-22T11:45:45Z</time></trkpt><trkpt lat="51.7226462625" lon="-2.1056451369"><ele>-46.47</ele><time>2023-11-22T11:46:07Z</time></trkpt><trkpt lat="51.7226716597" lon="-2.1057904791"><ele>-44.88</ele><time>2023-11-22T11:46:29Z</time></trkpt><trkpt lat="51.7226782814" lon="-2.1060182154"><ele>-43.50</ele><time>2023-11-22T11:46:52Z</time></trkpt><trkpt lat="51.7226589192" lon="-2.1061603725"><ele>-42.69</ele><time>2023-11-22T11:47:05Z</time></trkpt><trkpt lat="51.7226780299" lon="-2.1063771285"><ele>-41.84</ele><time>2023-11-22T11:47:26Z</time></trkpt><trkpt lat="51.7226812150" lon="-2.1064233966"><ele>-41.74</ele><time>2023-11-22T11:47:30Z</time></trkpt><trkpt lat="51.7226836458" lon="-2.1066497918"><ele>-41.35</ele><time>2023-11-22T11:47:47Z</time></trkpt><trkpt lat="51.7226879206" lon="-2.1067174338"><ele>-41.17</ele><time>2023-11-22T11:47:55Z</time></trkpt><trkpt lat="51.7227003258" lon="-2.1069137380"><ele>-40.90</ele><time>2023-11-22T11:48:18Z</time></trkpt><trkpt lat="51.7227075342" lon="-2.1071405523"><ele>-41.17</ele><time>2023-11-22T11:48:38Z</time></trkpt><trkpt lat="51.7227324285" lon="-2.1073797718"><ele>-40.94</ele><time>2023-11-22T11:49:01Z</time></trkpt><trkpt lat="51.7227340210" lon="-2.1074940171"><ele>-40.94</ele><time>2023-11-22T11:49:18Z</time></trkpt><trkpt lat="51.7227816302" lon="-2.1076536085"><ele>-40.94</ele><time>2023-11-22T11:49:36Z</time></trkpt><trkpt lat="51.7228028364" lon="-2.1077583823"><ele>-40.94</ele><time>2023-11-22T11:49:48Z</time></trkpt><trkpt lat="51.7228449974" lon="-2.1080556884"><ele>-40.94</ele><time>2023-11-22T11:50:12Z</time></trkpt><trkpt lat="51.7228647787" lon="-2.1082865261"><ele>-40.94</ele><time>2023-11-22T11:50:33Z</time></trkpt><trkpt lat="51.7229019105" lon="-2.1085353009"><ele>-40.94</ele><time>2023-11-22T11:50:54Z</time></trkpt><trkpt lat="51.7229447421" lon="-2.1089057811"><ele>-40.94</ele><time>2023-11-22T11:51:19Z</time></trkpt><trkpt lat="51.7229993921" lon="-2.1092095412"><ele>-40.94</ele><time>2023-11-22T11:51:44Z</time></trkpt><trkpt lat="51.7229992244" lon="-2.1092566475"><ele>-43.95</ele><time>2023-11-22T11:51:50Z</time></trkpt><trkpt lat="51.7229994759" lon="-2.1092662029"><ele>-44.01</ele><time>2023-11-22T11:51:51Z</time></trkpt><trkpt lat="51.7230207659" lon="-2.1094418876"><ele>-44.94</ele><time>2023-11-22T11:52:12Z</time></trkpt><trkpt lat="51.7230076902" lon="-2.1095176600"><ele>-44.94</ele><time>2023-11-22T11:52:32Z</time></trkpt><trkpt lat="51.7230009846" lon="-2.1095586475"><ele>-45.31</ele><time>2023-11-22T11:52:56Z</time></trkpt><trkpt lat="51.7230468336" lon="-2.1096952725"><ele>-45.39</ele><time>2023-11-22T11:53:19Z</time></trkpt><trkpt lat="51.7230729852" lon="-2.1099121962"><ele>-45.53</ele><time>2023-11-22T11:53:39Z</time></trkpt><trkpt lat="51.7231102847" lon="-2.1100775711"><ele>-45.53</ele><time>2023-11-22T11:54:06Z</time></trkpt><trkpt lat="51.7231465783" lon="-2.1102929022"><ele>-45.53</ele><time>2023-11-22T11:54:32Z</time></trkpt><trkpt lat="51.7231538706" lon="-2.1105607878"><ele>-45.53</ele><time>2023-11-22T11:54:57Z</time></trkpt><trkpt lat="51.7231526133" lon="-2.1108214650"><ele>-45.53</ele><time>2023-11-22T11:55:19Z</time></trkpt><trkpt lat="51.7231362686" lon="-2.1110352036"><ele>-45.53</ele><time>2023-11-22T11:55:38Z</time></trkpt><trkpt lat="51.7231273837" lon="-2.1111734211"><ele>-45.53</ele><time>2023-11-22T11:55:57Z</time></trkpt><trkpt lat="51.7231137212" lon="-2.1112335194"><ele>-45.53</ele><time>2023-11-22T11:56:20Z</time></trkpt><trkpt lat="51.7231199238" lon="-2.1112688072"><ele>-45.53</ele><time>2023-11-22T11:56:44Z</time></trkpt><trkpt lat="51.7231273837" lon="-2.1113342699"><ele>-48.17</ele><time>2023-11-22T11:56:57Z</time></trkpt><trkpt lat="51.7231051717" lon="-2.1115402970"><ele>-49.75</ele><time>2023-11-22T11:57:24Z</time></trkpt><trkpt lat="51.7230469175" lon="-2.1117829531"><ele>-50.85</ele><time>2023-11-22T11:57:50Z</time></trkpt><trkpt lat="51.7229830474" lon="-2.1120875515"><ele>-53.47</ele><time>2023-11-22T11:58:13Z</time></trkpt><trkpt lat="51.7229657806" lon="-2.1121606417"><ele>-52.90</ele><time>2023-11-22T11:58:24Z</time></trkpt><trkpt lat="51.7228946183" lon="-2.1123804152"><ele>-55.11</ele><time>2023-11-22T11:58:45Z</time></trkpt><trkpt lat="51.7228962108" lon="-2.1125208121"><ele>-55.89</ele><time>2023-11-22T11:59:05Z</time></trkpt><trkpt lat="51.7228651140" lon="-2.1126446966"><ele>-56.45</ele><time>2023-11-22T11:59:24Z</time></trkpt><trkpt lat="51.7228247970" lon="-2.1128241532"><ele>-57.61</ele><time>2023-11-22T11:59:44Z</time></trkpt><trkpt lat="51.7228217795" lon="-2.1128816530"><ele>-58.30</ele><time>2023-11-22T12:00:08Z</time></trkpt><trkpt lat="51.7228271440" lon="-2.1128694154"><ele>-57.92</ele><time>2023-11-22T12:00:31Z</time></trkpt><trkpt lat="51.7227691412" lon="-2.1129773743"><ele>-58.37</ele><time>2023-11-22T12:00:52Z</time></trkpt><trkpt lat="51.7227412295" lon="-2.1131326910"><ele>-58.36</ele><time>2023-11-22T12:01:16Z</time></trkpt><trkpt lat="51.7227392178" lon="-2.1132249758"><ele>-58.66</ele><time>2023-11-22T12:01:36Z</time></trkpt><trkpt lat="51.7227804568" lon="-2.1131937951"><ele>-58.11</ele><time>2023-11-22T12:01:59Z</time></trkpt><trkpt lat="51.7226945423" lon="-2.1132896841"><ele>-59.24</ele><time>2023-11-22T12:02:20Z</time></trkpt><trkpt lat="51.7226034310" lon="-2.1134774387"><ele>-56.45</ele><time>2023-11-22T12:02:39Z</time></trkpt><trkpt lat="51.7225566600" lon="-2.1136243735"><ele>-57.03</ele><time>2023-11-22T12:02:54Z</time></trkpt><trkpt lat="51.7225605994" lon="-2.1136458311"><ele>-54.00</ele><time>2023-11-22T12:03:00Z</time></trkpt><trkpt lat="51.7224946339" lon="-2.1137330867"><ele>-54.92</ele><time>2023-11-22T12:03:18Z</time></trkpt><trkpt lat="51.7224446777" lon="-2.1138256229"><ele>-53.67</ele><time>2023-11-22T12:03:27Z</time></trkpt><trkpt lat="51.7223251518" lon="-2.1141415369"><ele>-52.68</ele><time>2023-11-22T12:03:49Z</time></trkpt><trkpt lat="51.7223205417" lon="-2.1142733842"><ele>-51.96</ele><time>2023-11-22T12:04:11Z</time></trkpt><trkpt lat="51.7222131696" lon="-2.1144271921"><ele>-51.14</ele><time>2023-11-22T12:04:37Z</time></trkpt><trkpt lat="51.7221855931" lon="-2.1144846920"><ele>-50.60</ele><time>2023-11-22T12:04:58Z</time></trkpt><trkpt lat="51.7221671529" lon="-2.1145320497"><ele>-50.35</ele><time>2023-11-22T12:05:22Z</time></trkpt><trkpt lat="51.7221693322" lon="-2.1145442035"><ele>-50.66</ele><time>2023-11-22T12:05:48Z</time></trkpt><trkpt lat="51.7221688293" lon="-2.1145528369"><ele>-49.84</ele><time>2023-11-22T12:05:50Z</time></trkpt><trkpt lat="51.7221685778" lon="-2.1145627275"><ele>-50.61</ele><time>2023-11-22T12:06:14Z</time></trkpt><trkpt lat="51.7221038695" lon="-2.1147400048"><ele>-50.61</ele><time>2023-11-22T12:06:34Z</time></trkpt><trkpt lat="51.7221311945" lon="-2.1148449462"><ele>-50.61</ele><time>2023-11-22T12:06:48Z</time></trkpt><trkpt lat="51.7221762892" lon="-2.1149299387"><ele>-53.74</ele><time>2023-11-22T12:07:00Z</time></trkpt><trkpt lat="51.7222485412" lon="-2.1150054596"><ele>-56.05</ele><time>2023-11-22T12:07:10Z</time></trkpt><trkpt lat="51.7222681548" lon="-2.1150330361"><ele>-56.55</ele><time>2023-11-22T12:07:12Z</time></trkpt><trkpt lat="51.7223206256" lon="-2.1151772048"><ele>-59.82</ele><time>2023-11-22T12:07:31Z</time></trkpt><trkpt lat="51.7223210447" lon="-2.1151571721"><ele>-59.75</ele><time>2023-11-22T12:07:58Z</time></trkpt><trkpt lat="51.7224108987" lon="-2.1151932981"><ele>-59.08</ele><time>2023-11-22T12:08:25Z</time></trkpt><trkpt lat="51.7224461865" lon="-2.1151906997"><ele>-58.41</ele><time>2023-11-22T12:11:41Z</time></trkpt><trkpt lat="51.7223006766" lon="-2.1150736045"><ele>-56.32</ele><time>2023-11-22T12:12:06Z</time></trkpt><trkpt lat="51.7222135887" lon="-2.1149869356"><ele>-54.80</ele><time>2023-11-22T12:12:30Z</time></trkpt><trkpt lat="51.7222047877" lon="-2.1149461158"><ele>-54.21</ele><time>2023-11-22T12:12:46Z</time></trkpt><trkpt lat="51.7221360561" lon="-2.1148509812"><ele>-51.51</ele><time>2023-11-22T12:13:03Z</time></trkpt><trkpt lat="51.7220878601" lon="-2.1148069762"><ele>-49.14</ele><time>2023-11-22T12:13:25Z</time></trkpt><trkpt lat="51.7221088987" lon="-2.1146425232"><ele>-47.90</ele><time>2023-11-22T12:13:45Z</time></trkpt><trkpt lat="51.7221202981" lon="-2.1146328840"><ele>-47.49</ele><time>2023-11-22T12:14:41Z</time></trkpt><trkpt lat="51.7221419234" lon="-2.1146006137"><ele>-47.56</ele><time>2023-11-22T12:15:03Z</time></trkpt><trkpt lat="51.7221749481" lon="-2.1145514958"><ele>-47.54</ele><time>2023-11-22T12:15:30Z</time></trkpt><trkpt lat="51.7222041171" lon="-2.1145109273"><ele>-47.96</ele><time>2023-11-22T12:15:52Z</time></trkpt><trkpt lat="51.7222653888" lon="-2.1143731289"><ele>-48.86</ele><time>2023-11-22T12:16:16Z</time></trkpt><trkpt lat="51.7223651335" lon="-2.1140997950"><ele>-49.86</ele><time>2023-11-22T12:16:43Z</time></trkpt><trkpt lat="51.7224621121" lon="-2.1139539499"><ele>-50.95</ele><time>2023-11-22T12:17:13Z</time></trkpt><trkpt lat="51.7225523852" lon="-2.1135927737"><ele>-52.24</ele><time>2023-11-22T12:17:39Z</time></trkpt><trkpt lat="51.7226650380" lon="-2.1133582480"><ele>-53.54</ele><time>2023-11-22T12:18:03Z</time></trkpt><trkpt lat="51.7227469292" lon="-2.1131857485"><ele>-54.69</ele><time>2023-11-22T12:18:23Z</time></trkpt><trkpt lat="51.7228357773" lon="-2.1131492034"><ele>-56.92</ele><time>2023-11-22T12:18:41Z</time></trkpt><trkpt lat="51.7229760904" lon="-2.1132289153"><ele>-59.20</ele><time>2023-11-22T12:19:01Z</time></trkpt><trkpt lat="51.7230537068" lon="-2.1132467687"><ele>-60.36</ele><time>2023-11-22T12:19:21Z</time></trkpt><trkpt lat="51.7231184151" lon="-2.1132554021"><ele>-61.15</ele><time>2023-11-22T12:19:46Z</time></trkpt><trkpt lat="51.7232027370" lon="-2.1130113211"><ele>-59.03</ele><time>2023-11-22T12:20:10Z</time></trkpt><trkpt lat="51.7232246138" lon="-2.1129508875"><ele>-58.42</ele><time>2023-11-22T12:20:29Z</time></trkpt><trkpt lat="51.7232406233" lon="-2.1129663102"><ele>-57.92</ele><time>2023-11-22T12:20:47Z</time></trkpt></trkseg></trk></gpx>